This is the latest recevied weather packets stored in our database for station/object OM2RC-6. If no packets are shown the sender has not sent any weather packets the latest 10 day(s).
| Time | Temp. | Humidity | Pressure | Rain* | Wind** | Luminosity | Snow |
|---|---|---|---|---|---|---|---|
| 1777440881 | 9.44° C | 65% | 1024.9 hPa | - | - | - | - |
| 1777440580 | 8.33° C | 70% | 1024.9 hPa | - | - | - | - |
| 1777440279 | 7.22° C | 76% | 1024.9 hPa | - | - | - | - |
| 1777439978 | 11.11° C | 54% | 1024.8 hPa | - | - | - | - |
| 1777439677 | 10° C | 59% | 1024.8 hPa | - | - | - | - |
| 1777439376 | 8.33° C | 66% | 1024.8 hPa | - | - | - | - |
| 1777439075 | 5.56° C | 86% | 1024.9 hPa | - | - | - | - |
| 1777438473 | 7.22° C | 82% | 1024.7 hPa | - | - | - | - |
| 1777438172 | 5.56° C | 88% | 1024.8 hPa | - | - | - | - |
| 1777437871 | 6.67° C | 80% | 1024.7 hPa | - | - | - | - |
| 1777437568 | 6.67° C | 82% | 1024.7 hPa | - | - | - | - |
| 1777437268 | 6.11° C | 88% | 1024.7 hPa | - | - | - | - |
| 1777436967 | 6.67° C | 89% | 1024.5 hPa | - | - | - | - |
| 1777436666 | 5.56° C | 99% | 1024.6 hPa | - | - | - | - |
| 1777436365 | 2.78° C | 100% | 1024.6 hPa | - | - | - | - |
| 1777436062 | 1.11° C | 100% | 1024.6 hPa | - | - | - | - |
| 1777435761 | 1.11° C | 100% | 1024.5 hPa | - | - | - | - |
| 1777435461 | 0.56° C | 100% | 1024.5 hPa | - | - | - | - |
| 1777435160 | 0° C | 100% | 1024.5 hPa | - | - | - | - |
| 1777434858 | 0.56° C | 100% | 1024.4 hPa | - | - | - | - |
| 1777434556 | 0.56° C | 100% | 1024.3 hPa | - | - | - | - |
| 1777434255 | 0.56° C | 100% | 1024.3 hPa | - | - | - | - |
| 1777433954 | 0.56° C | 100% | 1024.2 hPa | - | - | - | - |
| 1777433653 | 0.56° C | 100% | 1024.2 hPa | - | - | - | - |
| 1777433352 | 0.56° C | 100% | 1024.1 hPa | - | - | - | - |
* Rain since midnight (hover to see other rain measurements)
** Current wind speed in m/s (hover to see current wind gust speed)